createdAt,value
2018-08-04T00:02:17.771Z,43.10
2018-08-04T00:04:45.416Z,43.20
2018-08-04T00:07:13.127Z,43.30
2018-08-04T00:09:40.987Z,43.30
2018-08-04T00:12:08.759Z,43.20
2018-08-04T00:14:36.731Z,43.30
2018-08-04T00:17:05.823Z,43.30
2018-08-04T00:19:33.800Z,43.50
2018-08-04T00:22:01.519Z,43.70
2018-08-04T00:26:56.996Z,44.30
2018-08-04T00:29:24.731Z,44.40
2018-08-04T00:34:20.362Z,44.90
2018-08-04T00:36:48.060Z,45.10
2018-08-04T00:39:15.748Z,44.90
2018-08-04T00:41:43.724Z,45.60
2018-08-04T00:44:11.414Z,45.90
2018-08-04T00:46:39.074Z,46.10
2018-08-04T00:49:07.044Z,46.30
2018-08-04T00:51:34.724Z,46.50
2018-08-04T00:54:02.374Z,46.60
2018-08-04T00:56:30.345Z,46.70
2018-08-04T00:58:58.100Z,46.90
2018-08-04T01:01:25.759Z,47.00
2018-08-04T01:03:54.045Z,47.00
2018-08-04T01:06:21.701Z,46.90
2018-08-04T01:08:49.689Z,46.90
2018-08-04T01:11:17.433Z,46.90
2018-08-04T01:13:45.101Z,47.10
2018-08-04T01:16:13.191Z,47.20
2018-08-04T01:18:40.892Z,47.30
2018-08-04T01:21:08.536Z,47.30
2018-08-04T01:23:36.028Z,47.30
2018-08-04T01:26:04.012Z,47.40
2018-08-04T01:28:31.666Z,47.40
2018-08-04T01:30:59.360Z,47.40
2018-08-04T01:33:27.304Z,47.50
2018-08-04T01:35:55.024Z,47.50
2018-08-04T01:38:22.728Z,47.60
2018-08-04T01:40:50.475Z,47.70
2018-08-04T01:43:18.128Z,47.60
2018-08-04T01:45:45.837Z,47.70
2018-08-04T01:48:13.696Z,47.90
2018-08-04T01:50:41.405Z,47.90
2018-08-04T01:53:09.218Z,48.00
2018-08-04T01:55:37.067Z,48.20
2018-08-04T02:00:32.744Z,48.40
2018-08-04T02:03:01.144Z,48.70
2018-08-04T02:05:28.881Z,48.50
2018-08-04T02:10:24.263Z,48.70
2018-08-04T02:12:51.923Z,48.90
2018-08-04T02:15:20.106Z,48.90
2018-08-04T02:17:48.690Z,49.00
2018-08-04T02:20:16.343Z,49.10
2018-08-04T02:22:44.077Z,49.10
2018-08-04T02:25:11.728Z,49.20
2018-08-04T02:27:39.364Z,49.30
2018-08-04T02:30:07.500Z,50.10
2018-08-04T02:32:35.198Z,49.60
2018-08-04T02:35:02.937Z,49.80
2018-08-04T02:37:30.925Z,49.90
2018-08-04T02:39:58.669Z,50.00
2018-08-04T02:42:26.345Z,50.10
2018-08-04T02:44:54.296Z,50.40
2018-08-04T02:47:21.979Z,50.50
2018-08-04T02:49:49.609Z,50.60
2018-08-04T02:52:17.501Z,50.70
2018-08-04T02:54:45.214Z,50.90
2018-08-04T02:57:12.918Z,50.50
2018-08-04T02:59:40.874Z,50.90
2018-08-04T03:02:08.525Z,51.00
2018-08-04T03:04:36.169Z,51.10
2018-08-04T03:09:31.834Z,51.30
2018-08-04T03:11:59.460Z,51.50
2018-08-04T03:14:27.582Z,51.60
2018-08-04T03:16:55.200Z,51.70
2018-08-04T03:19:22.869Z,51.80
2018-08-04T03:21:51.006Z,51.90
2018-08-04T03:24:18.789Z,52.00
2018-08-04T03:26:46.766Z,52.10
2018-08-04T03:29:14.923Z,52.20
2018-08-04T03:31:42.615Z,52.30
2018-08-04T03:34:10.290Z,52.40
2018-08-04T03:36:38.221Z,52.60
2018-08-04T03:39:08.197Z,52.70
2018-08-04T03:44:03.904Z,52.80
2018-08-04T03:46:31.580Z,52.90
2018-08-04T03:48:59.256Z,53.00
2018-08-04T03:51:27.399Z,53.10
2018-08-04T03:53:55.048Z,53.10
2018-08-04T03:56:22.948Z,53.20
2018-08-04T04:01:18.423Z,53.40
2018-08-04T04:03:46.425Z,53.50
2018-08-04T04:08:42.019Z,53.50
2018-08-04T04:11:09.719Z,53.50
2018-08-04T04:13:37.421Z,53.70
2018-08-04T04:16:05.409Z,53.70
2018-08-04T04:18:33.075Z,53.80
2018-08-04T04:21:00.821Z,53.80
2018-08-04T04:23:28.597Z,54.00
2018-08-04T04:25:56.304Z,54.00
2018-08-04T04:28:24.346Z,54.10
2018-08-04T04:30:52.045Z,54.20
2018-08-04T04:33:19.693Z,54.20
2018-08-04T04:35:47.317Z,54.20
2018-08-04T04:38:15.221Z,54.20
2018-08-04T04:40:42.881Z,54.20
2018-08-04T04:43:10.543Z,54.30
2018-08-04T04:45:38.420Z,54.30
2018-08-04T04:48:07.146Z,54.40
2018-08-04T04:50:34.968Z,54.40
2018-08-04T04:55:30.299Z,54.40
2018-08-04T04:57:58.151Z,54.40
2018-08-04T05:00:25.774Z,54.40
2018-08-04T05:02:53.402Z,54.60
2018-08-04T05:07:49.069Z,54.40
2018-08-04T05:10:16.680Z,54.50
2018-08-04T05:12:44.724Z,54.40
2018-08-04T05:15:12.865Z,54.30
2018-08-04T05:17:40.606Z,54.30
2018-08-04T05:20:08.352Z,54.30
2018-08-04T05:22:36.023Z,54.30
2018-08-04T05:25:04.693Z,54.40
2018-08-04T05:27:32.373Z,54.50
2018-08-04T05:30:00.107Z,54.60
2018-08-04T05:32:27.986Z,54.60
2018-08-04T05:34:55.625Z,54.60
2018-08-04T05:39:51.442Z,54.80
2018-08-04T05:42:19.132Z,55.00
2018-08-04T05:44:46.811Z,55.00
2018-08-04T05:49:42.405Z,55.00
2018-08-04T05:52:10.064Z,54.90
2018-08-04T05:54:38.274Z,54.80
2018-08-04T05:57:06.011Z,54.70
2018-08-04T05:59:33.784Z,54.50
2018-08-04T06:02:01.517Z,54.20
2018-08-04T06:04:29.215Z,53.90
2018-08-04T06:06:56.876Z,53.50
2018-08-04T06:09:24.869Z,53.10
2018-08-04T06:11:52.664Z,52.90
2018-08-04T06:14:21.100Z,52.70
2018-08-04T06:16:48.757Z,52.30
2018-08-04T06:19:16.406Z,51.90
2018-08-04T06:21:44.503Z,51.30
2018-08-04T06:24:12.277Z,50.80
2018-08-04T06:26:40.508Z,50.40
2018-08-04T06:29:08.544Z,50.40
2018-08-04T06:31:36.356Z,49.30
2018-08-04T06:34:04.549Z,48.70
2018-08-04T06:36:33.084Z,48.10
2018-08-04T06:39:00.959Z,47.70
2018-08-04T06:41:29.933Z,47.30
2018-08-04T06:43:59.105Z,46.80
2018-08-04T06:46:28.652Z,45.90
2018-08-04T06:48:57.451Z,45.00
2018-08-04T06:51:25.337Z,44.10
2018-08-04T06:53:53.100Z,43.30
2018-08-04T06:56:21.060Z,42.70
2018-08-04T06:58:48.959Z,42.50
2018-08-04T07:01:55.085Z,42.50
2018-08-04T07:24:02.634Z,42.60
2018-08-04T07:26:30.258Z,42.70
2018-08-04T07:28:57.906Z,43.40
2018-08-04T07:31:25.596Z,43.10
2018-08-04T07:34:00.610Z,41.40
2018-08-04T07:38:55.998Z,39.60
2018-08-04T07:41:24.287Z,38.80
2018-08-04T07:43:51.971Z,38.00
2018-08-04T07:46:19.630Z,37.50
2018-08-04T07:48:47.558Z,36.70
2018-08-04T07:53:43.342Z,35.40
2018-08-04T07:56:11.082Z,34.70
2018-08-04T07:58:38.725Z,33.80
2018-08-04T08:01:06.558Z,33.20
2018-08-04T08:03:34.422Z,32.70
2018-08-04T08:06:02.068Z,32.20
2018-08-04T08:08:30.100Z,31.60
2018-08-04T08:10:57.766Z,31.10
2018-08-04T08:13:25.458Z,30.40
2018-08-04T08:15:53.244Z,30.00
2018-08-04T08:20:48.666Z,29.20
2018-08-04T08:23:16.308Z,28.90
2018-08-04T08:26:19.241Z,28.60
2018-08-04T08:28:46.884Z,28.10
2018-08-04T08:31:14.474Z,27.70
2018-08-04T08:33:42.257Z,27.20
2018-08-04T08:36:09.959Z,26.90
2018-08-04T08:38:37.993Z,26.50
2018-08-04T08:41:05.701Z,26.10
2018-08-04T08:43:33.386Z,25.80
2018-08-04T08:48:28.913Z,25.00
2018-08-04T08:53:25.654Z,24.30
2018-08-04T08:55:53.449Z,24.00
2018-08-04T08:58:21.143Z,23.80
2018-08-04T09:00:49.133Z,23.50
2018-08-04T09:03:16.911Z,23.40
2018-08-04T09:05:44.916Z,23.30
2018-08-04T09:08:12.624Z,23.20
2018-08-04T09:10:40.276Z,23.00
2018-08-04T09:13:08.399Z,23.00
2018-08-04T09:15:36.193Z,22.80
2018-08-04T09:18:03.944Z,22.70
2018-08-04T09:20:31.600Z,22.60
2018-08-04T09:22:59.491Z,22.40
2018-08-04T09:25:27.204Z,22.30
2018-08-04T09:27:54.852Z,22.10
2018-08-04T09:30:22.899Z,22.00
2018-08-04T09:32:50.592Z,21.80
2018-08-04T09:35:18.312Z,21.40
2018-08-04T09:37:46.963Z,21.10
2018-08-04T09:40:15.224Z,20.90
2018-08-04T09:42:43.829Z,20.60
2018-08-04T09:47:40.393Z,20.20
2018-08-04T09:50:09.915Z,20.60
2018-08-04T09:55:07.081Z,20.70
2018-08-04T09:57:34.888Z,20.70
2018-08-04T10:00:03.706Z,20.60
2018-08-04T10:02:31.359Z,20.40
2018-08-04T10:04:59.241Z,20.10
2018-08-04T10:07:27.026Z,19.90
2018-08-04T10:09:54.709Z,19.80
2018-08-04T10:12:22.637Z,19.70
2018-08-04T10:14:50.326Z,19.70
2018-08-04T10:17:17.977Z,19.60
2018-08-04T10:19:46.185Z,19.60
2018-08-04T10:22:16.158Z,19.80
2018-08-04T10:24:43.776Z,20.00
2018-08-04T10:27:12.270Z,20.30
2018-08-04T10:29:39.870Z,20.40
2018-08-04T10:32:08.224Z,20.40
2018-08-04T10:34:36.337Z,20.70
2018-08-04T10:37:04.000Z,20.80
2018-08-04T10:39:33.016Z,20.50
2018-08-04T10:42:00.849Z,20.40
2018-08-04T10:44:28.572Z,20.30
2018-08-04T10:46:56.218Z,20.30
2018-08-04T10:49:24.191Z,20.30
2018-08-04T10:54:19.429Z,20.40
2018-08-04T10:56:47.205Z,20.50
2018-08-04T10:59:14.864Z,20.60
2018-08-04T11:01:42.877Z,20.70
2018-08-04T11:04:11.936Z,20.90
2018-08-04T11:06:39.674Z,21.20
2018-08-04T11:09:09.048Z,21.40
2018-08-04T11:11:36.995Z,21.60
2018-08-04T11:14:05.402Z,21.70
2018-08-04T11:16:32.997Z,21.80
2018-08-04T11:21:28.655Z,21.50
2018-08-04T11:23:56.549Z,21.40
2018-08-04T11:28:51.865Z,21.20
2018-08-04T11:31:20.054Z,21.20
2018-08-04T11:33:49.608Z,21.30
2018-08-04T11:36:17.405Z,21.80
2018-08-04T11:41:14.950Z,21.70
2018-08-04T11:43:42.754Z,21.90
2018-08-04T11:46:11.308Z,22.00
2018-08-04T11:48:39.025Z,22.30
2018-08-04T11:51:07.182Z,22.70
2018-08-04T11:53:36.176Z,23.10
2018-08-04T11:56:04.139Z,23.50
2018-08-04T12:01:01.066Z,24.20
2018-08-04T12:05:59.769Z,24.90
2018-08-04T12:08:28.396Z,25.30
2018-08-04T12:10:56.061Z,25.50
2018-08-04T12:13:24.724Z,25.80
2018-08-04T12:15:52.684Z,26.20
2018-08-04T12:18:22.034Z,26.30
2018-08-04T12:20:50.295Z,26.40
2018-08-04T12:25:46.241Z,26.50
2018-08-04T12:28:13.939Z,26.50
2018-08-04T12:30:41.546Z,26.30
2018-08-04T12:40:33.066Z,25.60
2018-08-04T12:43:00.660Z,25.50
2018-08-04T12:45:28.309Z,25.40
2018-08-04T12:47:55.965Z,25.90
2018-08-04T12:50:23.609Z,25.40
2018-08-04T12:52:51.242Z,25.50
2018-08-04T12:55:19.096Z,25.50
2018-08-04T12:57:46.741Z,25.50
2018-08-04T13:00:14.393Z,25.60
2018-08-04T13:02:42.656Z,25.60
2018-08-04T13:05:10.325Z,25.50
2018-08-04T13:07:38.063Z,25.40
2018-08-04T13:10:06.069Z,25.30
2018-08-04T13:15:01.988Z,25.30
2018-08-04T13:17:30.073Z,25.30
2018-08-04T13:19:57.774Z,25.20
2018-08-04T13:22:25.529Z,25.00
2018-08-04T13:29:48.939Z,25.10
2018-08-04T13:32:17.332Z,24.90
2018-08-04T13:34:46.086Z,24.90
2018-08-04T13:37:13.933Z,24.80
2018-08-04T13:39:41.587Z,24.70
2018-08-04T13:42:09.481Z,24.80
2018-08-04T13:44:37.230Z,25.00
2018-08-04T13:47:04.954Z,25.00
2018-08-04T13:52:00.732Z,25.00
2018-08-04T13:54:28.682Z,24.90
2018-08-04T13:56:57.277Z,24.90
2018-08-04T13:59:25.625Z,24.90
2018-08-04T14:01:53.530Z,25.00
2018-08-04T14:06:49.130Z,25.10
2018-08-04T14:09:16.845Z,25.10
2018-08-04T14:11:44.706Z,25.20
2018-08-04T14:14:12.647Z,25.20
2018-08-04T14:16:40.472Z,25.20
2018-08-04T14:19:08.480Z,25.20
2018-08-04T14:21:36.101Z,25.30
2018-08-04T14:24:03.700Z,25.40
2018-08-04T14:26:34.354Z,25.50
2018-08-04T14:29:02.251Z,25.50
2018-08-04T14:31:29.851Z,25.40
2018-08-04T14:33:58.310Z,25.50
2018-08-04T14:36:26.402Z,25.40
2018-08-04T14:38:54.228Z,25.30
2018-08-04T14:41:23.638Z,25.20
2018-08-04T14:43:52.288Z,25.10
2018-08-04T14:46:20.157Z,25.10
2018-08-04T14:48:48.213Z,25.10
2018-08-04T14:51:15.908Z,25.00
2018-08-04T14:53:44.052Z,25.50
2018-08-04T14:56:13.116Z,25.00
2018-08-04T14:58:41.227Z,25.30
2018-08-04T15:01:09.874Z,25.50
2018-08-04T15:03:37.989Z,25.70
2018-08-04T15:08:33.868Z,26.10
2018-08-04T15:11:02.443Z,26.20
2018-08-04T15:13:30.109Z,26.30
2018-08-04T15:15:57.853Z,26.40
2018-08-04T15:18:25.434Z,26.60
2018-08-04T15:20:53.098Z,26.60
2018-08-04T15:23:20.921Z,26.60
2018-08-04T15:25:48.562Z,26.70
2018-08-04T15:28:16.217Z,26.80
2018-08-04T15:30:44.639Z,27.40
2018-08-04T15:33:12.742Z,27.00
2018-08-04T15:35:40.305Z,27.20
2018-08-04T15:38:08.237Z,27.20
2018-08-04T15:40:35.812Z,27.10
2018-08-04T15:43:05.533Z,27.10
2018-08-04T15:45:34.736Z,27.00
2018-08-04T15:48:03.027Z,27.00
2018-08-04T15:50:30.747Z,27.30
2018-08-04T15:52:58.893Z,28.10
2018-08-04T15:55:27.672Z,28.60
2018-08-04T15:57:55.682Z,28.80
2018-08-04T16:00:23.914Z,29.00
2018-08-04T16:02:52.273Z,29.10
2018-08-04T16:05:20.374Z,29.10
2018-08-04T16:07:48.011Z,30.70
2018-08-04T16:10:15.866Z,31.00
2018-08-04T16:12:43.721Z,31.80
2018-08-04T16:17:40.124Z,31.70
2018-08-04T16:20:13.517Z,31.80
2018-08-04T16:22:41.398Z,32.30
2018-08-04T16:25:09.065Z,33.10
2018-08-04T16:27:38.201Z,33.50
2018-08-04T16:30:09.410Z,33.70
2018-08-04T16:32:37.108Z,34.10
2018-08-04T16:35:05.161Z,35.30
2018-08-04T16:37:33.080Z,36.60
2018-08-04T16:40:00.931Z,36.10
2018-08-04T16:42:28.529Z,36.50
2018-08-04T16:44:56.731Z,36.70
2018-08-04T16:47:24.468Z,36.90
2018-08-04T16:49:53.101Z,37.10
2018-08-04T16:52:21.824Z,37.40
2018-08-04T16:54:49.463Z,37.60
2018-08-04T16:57:33.118Z,37.20
2018-08-04T17:00:08.059Z,36.90
2018-08-04T17:02:54.604Z,36.80
2018-08-04T17:05:22.313Z,36.90
2018-08-04T17:10:18.263Z,37.00
2018-08-04T17:15:13.521Z,37.40
2018-08-04T17:17:41.392Z,38.10
2018-08-04T17:20:09.035Z,37.60
2018-08-04T17:25:04.558Z,37.80
2018-08-04T17:27:32.148Z,37.90
2018-08-04T17:29:59.906Z,37.90
2018-08-04T17:32:28.043Z,38.00
2018-08-04T17:34:55.776Z,38.10
2018-08-04T17:37:23.975Z,38.20
2018-08-04T17:39:52.017Z,38.40
2018-08-04T17:42:19.638Z,39.10
2018-08-04T17:44:47.255Z,38.30
2018-08-04T17:47:14.932Z,38.30
2018-08-04T17:49:42.545Z,38.30
2018-08-04T17:52:10.172Z,38.40
2018-08-04T17:54:38.019Z,38.50
2018-08-04T17:57:05.762Z,38.90
2018-08-04T18:09:19.460Z,39.10
2018-08-04T18:11:47.072Z,39.20
2018-08-04T18:16:42.713Z,39.30
2018-08-04T18:21:37.993Z,40.00
2018-08-04T18:24:05.796Z,40.10
2018-08-04T18:26:33.597Z,40.10
2018-08-04T18:29:01.237Z,40.20
2018-08-04T18:31:29.213Z,40.20
2018-08-04T18:36:24.480Z,40.60
2018-08-04T18:38:51.921Z,40.80
2018-08-04T18:43:47.645Z,41.30
2018-08-04T18:46:15.216Z,41.50
2018-08-04T18:48:43.221Z,41.80
2018-08-04T18:51:10.938Z,41.90
2018-08-04T18:53:38.535Z,42.10
2018-08-04T18:56:06.715Z,42.30
2018-08-04T19:01:02.030Z,42.70
2018-08-04T19:03:29.918Z,43.30
2018-08-04T19:05:57.652Z,42.80
2018-08-04T19:08:25.270Z,42.90
2018-08-04T19:10:52.912Z,43.10
2018-08-04T19:13:20.810Z,43.30
2018-08-04T19:15:53.079Z,43.40
2018-08-04T19:18:21.045Z,43.50
2018-08-04T19:23:16.328Z,43.80
2018-08-04T19:25:44.460Z,44.10
2018-08-04T19:30:39.759Z,44.40
2018-08-04T19:33:07.529Z,44.70
2018-08-04T19:35:34.922Z,44.90
2018-08-04T19:38:02.794Z,45.10
2018-08-04T19:40:30.429Z,45.20
2018-08-04T19:42:58.035Z,45.30
2018-08-04T19:45:26.493Z,45.50
2018-08-04T19:47:54.090Z,45.60
2018-08-04T19:50:21.715Z,45.70
2018-08-04T19:52:49.925Z,45.80
2018-08-04T19:57:45.145Z,46.20
2018-08-04T20:02:40.724Z,46.60
2018-08-04T20:05:08.354Z,46.70
2018-08-04T20:10:04.347Z,47.10
2018-08-04T20:12:32.387Z,47.30
2018-08-04T20:17:28.045Z,47.70
2018-08-04T20:19:55.648Z,47.80
2018-08-04T20:22:23.605Z,48.00
2018-08-04T20:24:51.218Z,48.20
2018-08-04T20:27:18.829Z,48.30
2018-08-04T20:29:46.668Z,48.50
2018-08-04T20:34:42.922Z,48.90
2018-08-04T20:42:06.321Z,49.30
2018-08-04T20:44:33.967Z,49.40
2018-08-04T20:47:01.878Z,49.60
2018-08-04T20:49:29.458Z,49.60
2018-08-04T20:51:57.092Z,49.80
2018-08-04T20:54:24.845Z,50.00
2018-08-04T20:59:20.240Z,50.60
2018-08-04T21:01:57.958Z,50.30
2018-08-04T21:04:26.198Z,50.50
2018-08-04T21:06:53.838Z,50.50
2018-08-04T21:09:21.925Z,50.70
2018-08-04T21:11:50.968Z,50.80
2018-08-04T21:14:19.904Z,51.00
2018-08-04T21:16:48.398Z,51.10
2018-08-04T21:19:16.245Z,51.70
2018-08-04T21:21:44.247Z,51.40
2018-08-04T21:26:39.577Z,51.70
2018-08-04T21:29:07.468Z,51.90
2018-08-04T21:31:35.107Z,52.00
2018-08-04T21:34:02.787Z,52.20
2018-08-04T21:36:30.609Z,52.40
2018-08-04T21:38:58.198Z,53.00
2018-08-04T21:43:54.380Z,52.80
2018-08-04T21:48:50.137Z,53.10
2018-08-04T21:53:46.068Z,53.30
2018-08-04T21:56:13.794Z,53.40
2018-08-04T21:58:41.691Z,53.50
2018-08-04T22:01:12.080Z,53.70
2018-08-04T22:03:40.485Z,53.90
2018-08-04T22:06:08.122Z,53.90
2018-08-04T22:08:53.676Z,54.00
2018-08-04T22:11:21.269Z,53.90
2018-08-04T22:13:49.317Z,53.60
2018-08-04T22:16:16.968Z,53.60
2018-08-04T22:18:44.603Z,53.60
2018-08-04T22:21:12.934Z,53.50
2018-08-04T22:23:40.611Z,53.50
2018-08-04T22:26:08.285Z,53.60
2018-08-04T22:28:36.128Z,53.70
2018-08-04T22:33:31.358Z,53.70
2018-08-04T22:35:59.120Z,53.70
2018-08-04T22:38:26.767Z,53.90
2018-08-04T22:40:54.413Z,53.90
2018-08-04T22:43:22.345Z,53.90
2018-08-04T22:46:10.257Z,53.90
2018-08-04T22:48:38.376Z,54.00
2018-08-04T22:51:06.021Z,54.40
2018-08-04T22:53:33.961Z,54.30
2018-08-04T22:56:01.845Z,54.50
2018-08-04T22:58:29.530Z,54.60
2018-08-04T23:03:26.084Z,54.80
2018-08-04T23:05:53.810Z,54.80
2018-08-04T23:08:21.452Z,54.80
2018-08-04T23:10:49.402Z,54.90
2018-08-04T23:13:17.212Z,55.00
2018-08-04T23:15:45.873Z,55.10
2018-08-04T23:18:13.724Z,55.40
2018-08-04T23:20:41.465Z,55.40
2018-08-04T23:23:10.748Z,55.50
2018-08-04T23:25:38.685Z,55.50
2018-08-04T23:28:06.861Z,55.60
2018-08-04T23:33:02.458Z,55.70
2018-08-04T23:35:30.642Z,55.60
2018-08-04T23:37:58.531Z,55.60
2018-08-04T23:40:26.241Z,55.50
2018-08-04T23:42:53.919Z,55.50
2018-08-04T23:45:21.565Z,55.60
2018-08-04T23:47:49.008Z,55.60
2018-08-04T23:50:16.839Z,55.60
2018-08-04T23:52:44.473Z,55.80
2018-08-04T23:55:12.085Z,55.70
2018-08-04T23:57:40.195Z,55.80
